Time;durP1;ratioP1;P1;durP2;ratioP2;P2;SDS_P1;SDS_P2;PMS_P1;PMS_P2;Temp;Humidity;BMP_temperature;BMP_pressure;BME280_temperature;BME280_humidity;BME280_pressure;Samples;Min_cycle;Max_cycle;Signal;HPM_P1;HPM_P2
2021/12/12 00:00:03;;;;;;;20.25;7.25;;;;;;;;;;5092877;28;20279;-82
2021/12/12 00:02:45;;;;;;;12.20;5.78;;;;;;;;;;5093228;28;20166;-82
2021/12/12 00:05:12;;;;;;;9.73;5.97;;;;;;;;;;5093058;28;20187;-83
2021/12/12 00:07:39;;;;;;;8.32;5.35;;;;;;;;;;5074817;28;20220;-82
2021/12/12 00:10:08;;;;;;;15.82;6.38;;;;;;;;;;5074538;28;20187;-81
2021/12/12 00:12:40;;;;;;;10.70;6.80;;;;;;;;;;5093132;28;20171;-81
2021/12/12 00:15:07;;;;;;;9.65;5.50;;;;;;;;;;5093014;28;20182;-82
2021/12/12 00:17:33;;;;;;;11.88;7.72;;;;;;;;;;5074856;28;20552;-83
2021/12/12 00:19:59;;;;;;;10.75;5.10;;;;;;;;;;5074860;28;20233;-80
2021/12/12 00:22:26;;;;;;;8.25;5.70;;;;;;;;;;5093055;28;20185;-83
2021/12/12 00:24:52;;;;;;;13.32;6.70;;;;;;;;;;5092935;28;20171;-83
2021/12/12 00:27:20;;;;;;;12.32;5.40;;;;;;;;;;5092719;28;20533;-82
2021/12/12 00:29:46;;;;;;;11.27;6.65;;;;;;;;;;5092626;28;20182;-83
2021/12/12 00:32:14;;;;;;;13.95;5.15;;;;;;;;;;5093174;28;20207;-82
2021/12/12 00:34:45;;;;;;;11.05;6.03;;;;;;;;;;5096893;28;20197;-83
2021/12/12 00:37:11;;;;;;;11.32;5.10;;;;;;;;;;5097131;28;20511;-84
2021/12/12 00:39:39;;;;;;;10.52;5.50;;;;;;;;;;5096248;28;20202;-84
2021/12/12 00:42:14;;;;;;;7.95;4.78;;;;;;;;;;5096767;28;20198;-85
2021/12/12 00:44:41;;;;;;;8.45;5.40;;;;;;;;;;5078444;28;20250;-84
2021/12/12 00:47:09;;;;;;;11.35;6.03;;;;;;;;;;5097293;28;20564;-85
2021/12/12 00:49:37;;;;;;;6.82;4.32;;;;;;;;;;5096296;28;20543;-83
2021/12/12 00:52:05;;;;;;;12.15;4.55;;;;;;;;;;5078371;28;20256;-83
2021/12/12 00:54:31;;;;;;;10.82;5.47;;;;;;;;;;5096524;28;20176;-82
2021/12/12 00:57:00;;;;;;;10.40;5.18;;;;;;;;;;5096653;28;20641;-85
2021/12/12 00:59:26;;;;;;;7.57;5.05;;;;;;;;;;5096111;28;20558;-83
2021/12/12 01:01:54;;;;;;;9.30;4.85;;;;;;;;;;5096427;28;20586;-82
2021/12/12 01:04:25;;;;;;;11.27;4.90;;;;;;;;;;5096577;28;20174;-84
2021/12/12 01:06:52;;;;;;;13.45;4.88;;;;;;;;;;5096411;28;20533;-85
2021/12/12 01:09:21;;;;;;;6.82;4.40;;;;;;;;;;5096029;28;20205;-82
2021/12/12 01:11:50;;;;;;;10.40;5.10;;;;;;;;;;5096364;28;20270;-82
2021/12/12 01:14:18;;;;;;;10.85;5.40;;;;;;;;;;5096702;28;20527;-82
2021/12/12 01:16:47;;;;;;;8.05;3.92;;;;;;;;;;5096461;28;20169;-83
2021/12/12 01:19:15;;;;;;;10.75;4.65;;;;;;;;;;5096073;28;20275;-85
2021/12/12 01:21:43;;;;;;;8.07;4.95;;;;;;;;;;5096123;28;20195;-83
2021/12/12 01:24:12;;;;;;;11.98;4.20;;;;;;;;;;5077906;28;20179;-83
2021/12/12 01:26:38;;;;;;;7.60;4.80;;;;;;;;;;5095738;28;20198;-84
2021/12/12 01:29:06;;;;;;;9.15;4.68;;;;;;;;;;5095801;28;20172;-82
2021/12/12 01:31:33;;;;;;;9.48;5.00;;;;;;;;;;5095386;28;20203;-82
2021/12/12 01:34:10;;;;;;;8.05;4.47;;;;;;;;;;5095869;28;20270;-81
2021/12/12 01:39:39;;;;;;;8.52;4.60;;;;;;;;;;5081833;28;20675;-84
2021/12/12 01:42:07;;;;;;;7.10;3.80;;;;;;;;;;5077466;28;20206;-84
2021/12/12 01:44:33;;;;;;;7.32;4.50;;;;;;;;;;5094569;28;20176;-84
2021/12/12 01:47:10;;;;;;;5.90;3.80;;;;;;;;;;5095378;28;20504;-82
2021/12/12 01:49:38;;;;;;;12.55;4.40;;;;;;;;;;5095129;28;20437;-81
2021/12/12 01:52:05;;;;;;;7.03;3.90;;;;;;;;;;5095236;28;20672;-84
2021/12/12 01:54:42;;;;;;;7.38;4.57;;;;;;;;;;5095481;28;20597;-84
2021/12/12 01:57:08;;;;;;;11.45;4.00;;;;;;;;;;5095581;28;20176;-84
2021/12/12 01:59:36;;;;;;;7.28;3.72;;;;;;;;;;5094921;28;20195;-81
2021/12/12 02:02:07;;;;;;;5.35;4.10;;;;;;;;;;5095104;28;20656;-85
2021/12/12 02:04:35;;;;;;;9.52;5.00;;;;;;;;;;5095178;28;20170;-82
2021/12/12 02:07:03;;;;;;;7.07;4.22;;;;;;;;;;5095216;28;20173;-84
2021/12/12 02:09:29;;;;;;;7.32;4.05;;;;;;;;;;5095057;28;20176;-84
2021/12/12 02:11:56;;;;;;;6.68;3.35;;;;;;;;;;5095005;28;20222;-81
2021/12/12 02:14:23;;;;;;;5.00;3.45;;;;;;;;;;5094815;28;20220;-82
2021/12/12 02:16:51;;;;;;;6.68;3.83;;;;;;;;;;5094986;28;20179;-81
2021/12/12 02:19:26;;;;;;;12.82;4.47;;;;;;;;;;5094467;28;20691;-84
2021/12/12 02:35:47;;;;;;;5.55;4.05;;;;;;;;;;5094923;28;20188;-84
2021/12/12 02:38:16;;;;;;;6.75;3.20;;;;;;;;;;5076212;28;20625;-82
2021/12/12 02:40:44;;;;;;;7.32;3.10;;;;;;;;;;5094164;28;20191;-82
2021/12/12 02:43:12;;;;;;;7.88;4.18;;;;;;;;;;5094504;28;20168;-83
2021/12/12 02:45:38;;;;;;;7.32;3.67;;;;;;;;;;5076408;28;20530;-82
2021/12/12 02:48:07;;;;;;;7.57;3.25;;;;;;;;;;5094637;28;20202;-82
2021/12/12 02:50:38;;;;;;;6.57;3.28;;;;;;;;;;5093843;28;20735;-84
2021/12/12 02:53:25;;;;;;;7.78;2.90;;;;;;;;;;5094250;28;20179;-83
2021/12/12 02:55:54;;;;;;;9.93;3.70;;;;;;;;;;5093910;28;20194;-82
2021/12/12 02:58:20;;;;;;;11.52;3.47;;;;;;;;;;5094041;28;20249;-81
2021/12/12 03:01:19;;;;;;;4.88;2.90;;;;;;;;;;5093485;28;20192;-81
2021/12/12 03:03:46;;;;;;;5.80;4.22;;;;;;;;;;5032407;28;20180;-85
2021/12/12 03:06:15;;;;;;;12.25;4.32;;;;;;;;;;5075710;28;20262;-82
2021/12/12 03:08:42;;;;;;;6.53;3.00;;;;;;;;;;5075820;28;20180;-83
2021/12/12 03:11:09;;;;;;;5.00;3.35;;;;;;;;;;5075641;28;20203;-85
2021/12/12 03:13:35;;;;;;;8.65;3.28;;;;;;;;;;5093707;28;20212;-83
2021/12/12 03:16:01;;;;;;;9.20;3.78;;;;;;;;;;5093811;28;20186;-82
2021/12/12 03:18:30;;;;;;;14.63;5.28;;;;;;;;;;5093672;28;20282;-82
2021/12/12 03:20:57;;;;;;;7.32;3.05;;;;;;;;;;5074986;28;20199;-84
2021/12/12 03:23:26;;;;;;;11.55;3.90;;;;;;;;;;5093598;28;20537;-85
2021/12/12 03:25:54;;;;;;;8.43;3.30;;;;;;;;;;5093672;28;20537;-81
2021/12/12 03:28:21;;;;;;;5.47;3.13;;;;;;;;;;5093631;28;20172;-83
2021/12/12 03:30:48;;;;;;;8.18;3.25;;;;;;;;;;5092947;28;20197;-83
2021/12/12 03:33:14;;;;;;;11.52;3.15;;;;;;;;;;5075867;28;20232;-83
2021/12/12 03:35:40;;;;;;;5.32;3.38;;;;;;;;;;5075675;28;20233;-84
2021/12/12 03:38:07;;;;;;;7.47;3.10;;;;;;;;;;5093405;28;20186;-84
2021/12/12 03:40:35;;;;;;;6.28;3.22;;;;;;;;;;5093110;28;20578;-85
2021/12/12 03:43:02;;;;;;;8.20;4.00;;;;;;;;;;5093414;28;20170;-83
2021/12/12 03:45:28;;;;;;;6.47;3.40;;;;;;;;;;5093524;28;20282;-83
2021/12/12 03:47:57;;;;;;;10.57;4.35;;;;;;;;;;5093400;28;20172;-85
2021/12/12 03:50:25;;;;;;;6.82;3.33;;;;;;;;;;5092974;28;20205;-81
2021/12/12 03:52:52;;;;;;;6.65;3.22;;;;;;;;;;5093108;28;20172;-83
2021/12/12 03:55:18;;;;;;;5.65;3.25;;;;;;;;;;5093492;28;20168;-83
2021/12/12 03:57:47;;;;;;;9.95;3.92;;;;;;;;;;5093298;28;20176;-82
2021/12/12 04:00:15;;;;;;;4.03;3.30;;;;;;;;;;5092946;28;20200;-83
2021/12/12 04:02:42;;;;;;;5.20;3.05;;;;;;;;;;5093407;28;20168;-83
2021/12/12 04:05:08;;;;;;;6.05;3.17;;;;;;;;;;5093214;28;20173;-83
2021/12/12 04:07:34;;;;;;;10.55;5.40;;;;;;;;;;5094353;28;20168;-83
2021/12/12 04:10:01;;;;;;;11.43;4.45;;;;;;;;;;5079147;28;20182;-83
2021/12/12 04:12:27;;;;;;;7.53;4.10;;;;;;;;;;5097310;28;20205;-83
2021/12/12 04:14:54;;;;;;;9.75;3.55;;;;;;;;;;5097167;28;20176;-83
2021/12/12 04:17:24;;;;;;;4.20;3.80;;;;;;;;;;5097247;28;20589;-83
2021/12/12 04:19:51;;;;;;;12.30;4.32;;;;;;;;;;5096676;28;20664;-83
2021/12/12 04:22:17;;;;;;;10.27;3.85;;;;;;;;;;5096959;28;20233;-83
2021/12/12 04:24:49;;;;;;;10.70;4.15;;;;;;;;;;5097070;28;20568;-82
2021/12/12 04:27:16;;;;;;;6.78;3.72;;;;;;;;;;5097119;28;20165;-83
2021/12/12 04:29:44;;;;;;;8.38;4.75;;;;;;;;;;5096626;28;20551;-82
2021/12/12 04:32:12;;;;;;;8.93;4.88;;;;;;;;;;5096848;28;20605;-82
2021/12/12 04:34:42;;;;;;;6.93;4.03;;;;;;;;;;5096836;28;20256;-82
2021/12/12 04:37:08;;;;;;;7.88;3.92;;;;;;;;;;5078409;28;20183;-82
2021/12/12 04:39:37;;;;;;;12.07;4.22;;;;;;;;;;5096318;28;20198;-83
2021/12/12 04:42:14;;;;;;;9.82;4.35;;;;;;;;;;5096653;28;20555;-82
2021/12/12 04:44:41;;;;;;;5.25;3.13;;;;;;;;;;5096680;28;20655;-82
2021/12/12 04:50:40;;;;;;;9.35;4.53;;;;;;;;;;5096598;28;20187;-82
2021/12/12 04:53:32;;;;;;;8.80;4.03;;;;;;;;;;5075166;28;20184;-81
2021/12/12 04:56:01;;;;;;;8.77;4.50;;;;;;;;;;5058032;28;20278;-83
2021/12/12 04:58:32;;;;;;;7.53;4.10;;;;;;;;;;5096503;28;20199;-82
2021/12/12 05:01:01;;;;;;;18.42;4.93;;;;;;;;;;5077939;28;20195;-82
2021/12/12 05:03:42;;;;;;;7.53;4.53;;;;;;;;;;5077998;28;20206;-82
2021/12/12 05:06:08;;;;;;;8.63;4.22;;;;;;;;;;5096321;28;20539;-83
2021/12/12 05:08:37;;;;;;;5.35;3.85;;;;;;;;;;5096145;28;20225;-81
2021/12/12 05:11:05;;;;;;;8.80;4.78;;;;;;;;;;5095765;28;20196;-82
2021/12/12 05:13:33;;;;;;;7.88;4.50;;;;;;;;;;5095974;28;20223;-82
2021/12/12 05:16:06;;;;;;;9.30;5.53;;;;;;;;;;5078146;28;20211;-82
2021/12/12 05:18:35;;;;;;;9.55;5.00;;;;;;;;;;5095424;28;20243;-82
2021/12/12 05:21:06;;;;;;;9.05;4.65;;;;;;;;;;5076831;28;20603;-82
2021/12/12 05:23:33;;;;;;;9.27;4.20;;;;;;;;;;5095757;28;20180;-82
2021/12/12 05:26:01;;;;;;;15.18;6.43;;;;;;;;;;5096190;28;20164;-82
2021/12/12 05:28:29;;;;;;;7.38;4.10;;;;;;;;;;5095949;28;20261;-82
2021/12/12 05:30:56;;;;;;;9.95;4.80;;;;;;;;;;5095583;28;20203;-82
2021/12/12 05:33:22;;;;;;;11.13;5.00;;;;;;;;;;5096072;28;20206;-82
2021/12/12 05:35:49;;;;;;;8.43;4.88;;;;;;;;;;5095479;28;20262;-81
2021/12/12 05:38:15;;;;;;;8.95;3.70;;;;;;;;;;5095557;28;20231;-82
2021/12/12 05:40:42;;;;;;;12.05;4.70;;;;;;;;;;5095152;28;20190;-82
2021/12/12 05:43:09;;;;;;;12.80;5.50;;;;;;;;;;5095585;28;20182;-82
2021/12/12 05:45:35;;;;;;;14.02;6.25;;;;;;;;;;5095422;28;20624;-82
2021/12/12 05:48:04;;;;;;;12.02;5.40;;;;;;;;;;5095206;28;20234;-82
2021/12/12 05:50:31;;;;;;;10.20;5.63;;;;;;;;;;5095064;28;20227;-82
2021/12/12 05:52:57;;;;;;;8.45;4.80;;;;;;;;;;5095368;28;20182;-82
2021/12/12 05:55:25;;;;;;;11.95;5.60;;;;;;;;;;5095263;28;20164;-82
2021/12/12 05:57:55;;;;;;;10.82;5.18;;;;;;;;;;5095177;28;20564;-83
2021/12/12 06:00:23;;;;;;;9.10;4.75;;;;;;;;;;5094873;28;20200;-82
2021/12/12 06:02:49;;;;;;;8.73;4.90;;;;;;;;;;5095397;28;20506;-82
2021/12/12 06:05:15;;;;;;;10.07;4.43;;;;;;;;;;5077026;28;20190;-82
2021/12/12 06:07:42;;;;;;;9.43;5.07;;;;;;;;;;5094843;28;20164;-82
2021/12/12 06:10:10;;;;;;;10.23;4.40;;;;;;;;;;5094488;28;20179;-82
2021/12/12 06:12:36;;;;;;;7.57;4.65;;;;;;;;;;5094984;28;20178;-82
2021/12/12 06:15:05;;;;;;;6.78;4.28;;;;;;;;;;5094840;28;20172;-82
2021/12/12 06:17:31;;;;;;;7.32;4.35;;;;;;;;;;5094716;28;20176;-82
2021/12/12 06:19:58;;;;;;;6.75;4.40;;;;;;;;;;5094312;28;20208;-82
2021/12/12 06:22:24;;;;;;;11.93;4.32;;;;;;;;;;5094904;28;20565;-82
2021/12/12 06:24:51;;;;;;;7.97;4.55;;;;;;;;;;5094662;28;20271;-82
2021/12/12 06:27:18;;;;;;;8.68;4.72;;;;;;;;;;5060212;28;20268;-82
2021/12/12 06:29:46;;;;;;;8.63;5.18;;;;;;;;;;5094165;28;20538;-82
2021/12/12 06:32:12;;;;;;;11.10;4.68;;;;;;;;;;5093991;28;20247;-83
2021/12/12 06:34:38;;;;;;;8.13;4.47;;;;;;;;;;5076517;28;20183;-83
2021/12/12 06:37:04;;;;;;;8.18;4.20;;;;;;;;;;5094452;28;20184;-83
2021/12/12 06:39:31;;;;;;;5.72;4.32;;;;;;;;;;5094239;28;20203;-83
2021/12/12 06:41:57;;;;;;;5.85;4.45;;;;;;;;;;5094254;28;20190;-82
2021/12/12 06:44:23;;;;;;;5.90;4.20;;;;;;;;;;5094323;28;20312;-83
2021/12/12 06:46:50;;;;;;;6.68;3.55;;;;;;;;;;5076135;28;20180;-83
2021/12/12 06:49:17;;;;;;;11.45;5.00;;;;;;;;;;5093984;28;20186;-84
2021/12/12 06:51:48;;;;;;;9.90;3.75;;;;;;;;;;5094082;28;20189;-83
2021/12/12 06:54:16;;;;;;;7.63;4.35;;;;;;;;;;5094370;28;20182;-84
2021/12/12 06:56:43;;;;;;;9.48;4.70;;;;;;;;;;5094146;28;20637;-83
2021/12/12 06:59:11;;;;;;;5.78;4.40;;;;;;;;;;5075825;28;20208;-83
2021/12/12 07:01:37;;;;;;;11.82;4.85;;;;;;;;;;5075785;28;20196;-83
2021/12/12 07:04:06;;;;;;;8.10;4.10;;;;;;;;;;5093833;28;20179;-83
2021/12/12 07:06:33;;;;;;;7.45;3.92;;;;;;;;;;5094058;28;20172;-82
2021/12/12 07:09:04;;;;;;;5.68;4.18;;;;;;;;;;5094055;28;20532;-83
2021/12/12 07:11:30;;;;;;;7.75;3.70;;;;;;;;;;5093552;28;20195;-83
2021/12/12 07:13:56;;;;;;;6.55;3.67;;;;;;;;;;5093862;28;20537;-83
2021/12/12 07:16:23;;;;;;;5.60;3.20;;;;;;;;;;5075695;28;20183;-83
2021/12/12 07:18:49;;;;;;;5.97;3.45;;;;;;;;;;5093738;28;20291;-83
2021/12/12 07:21:17;;;;;;;11.55;3.13;;;;;;;;;;5075275;28;20246;-82
2021/12/12 07:23:43;;;;;;;9.18;2.92;;;;;;;;;;5093752;28;20194;-83
2021/12/12 07:26:11;;;;;;;5.07;3.33;;;;;;;;;;5075863;28;20660;-84
2021/12/12 07:28:37;;;;;;;7.68;3.55;;;;;;;;;;5093589;28;20233;-84
2021/12/12 07:31:12;;;;;;;7.55;3.58;;;;;;;;;;5093078;28;20729;-84
2021/12/12 07:33:39;;;;;;;5.95;3.33;;;;;;;;;;5058850;28;20180;-84
2021/12/12 07:36:06;;;;;;;3.50;3.20;;;;;;;;;;5093736;28;20257;-84
2021/12/12 07:38:47;;;;;;;7.25;3.67;;;;;;;;;;5093448;28;20196;-84
2021/12/12 07:41:14;;;;;;;4.53;2.65;;;;;;;;;;5093699;28;20195;-84
2021/12/12 07:43:40;;;;;;;7.18;3.95;;;;;;;;;;5075121;28;20247;-84
2021/12/12 07:46:06;;;;;;;7.65;4.00;;;;;;;;;;5094239;28;20193;-84
2021/12/12 07:48:33;;;;;;;5.10;3.13;;;;;;;;;;5093924;28;20649;-84
2021/12/12 07:50:59;;;;;;;4.85;2.60;;;;;;;;;;5075174;28;20200;-84
2021/12/12 07:53:26;;;;;;;4.57;2.75;;;;;;;;;;5075613;28;20191;-84
2021/12/12 07:55:53;;;;;;;2.47;2.25;;;;;;;;;;5075479;28;20648;-84
2021/12/12 07:58:19;;;;;;;4.40;2.03;;;;;;;;;;5094036;28;20569;-84
2021/12/12 08:00:46;;;;;;;3.05;2.55;;;;;;;;;;5094969;28;20200;-84
2021/12/12 08:03:13;;;;;;;2.42;2.10;;;;;;;;;;5094522;28;20168;-84
2021/12/12 08:05:40;;;;;;;5.10;1.70;;;;;;;;;;5094770;28;20601;-84
2021/12/12 08:08:09;;;;;;;2.25;1.80;;;;;;;;;;5093915;28;20179;-84
2021/12/12 08:10:36;;;;;;;1.88;1.58;;;;;;;;;;5093437;28;20222;-84
2021/12/12 08:13:03;;;;;;;1.98;1.70;;;;;;;;;;5093909;28;20168;-84
2021/12/12 08:15:29;;;;;;;2.47;2.05;;;;;;;;;;5094475;28;20538;-85
2021/12/12 08:18:00;;;;;;;2.40;1.50;;;;;;;;;;5098578;28;20225;-85
2021/12/12 08:20:26;;;;;;;2.38;1.60;;;;;;;;;;5096490;28;20203;-84
2021/12/12 08:22:53;;;;;;;1.95;1.38;;;;;;;;;;5096293;28;20168;-84
2021/12/12 08:25:19;;;;;;;1.35;1.23;;;;;;;;;;5098805;28;20305;-83
2021/12/12 08:27:46;;;;;;;1.65;1.55;;;;;;;;;;5081479;28;20168;-84
2021/12/12 08:30:13;;;;;;;2.58;1.67;;;;;;;;;;5098881;28;20197;-84
2021/12/12 08:32:39;;;;;;;1.95;1.65;;;;;;;;;;5094564;28;20216;-84
2021/12/12 08:35:10;;;;;;;2.10;1.65;;;;;;;;;;5076092;28;20736;-85
2021/12/12 08:37:36;;;;;;;1.45;1.20;;;;;;;;;;5075463;28;20263;-84
2021/12/12 08:40:04;;;;;;;1.20;1.10;;;;;;;;;;5074994;28;20310;-84
2021/12/12 08:42:30;;;;;;;2.63;1.67;;;;;;;;;;5074991;28;20179;-84
2021/12/12 08:44:56;;;;;;;2.00;1.65;;;;;;;;;;5092862;28;20168;-83
2021/12/12 08:47:23;;;;;;;1.48;1.38;;;;;;;;;;5093081;28;20168;-84
2021/12/12 08:49:49;;;;;;;1.63;1.40;;;;;;;;;;5092732;28;20176;-84
2021/12/12 08:52:21;;;;;;;2.30;1.63;;;;;;;;;;5075121;28;20198;-84
2021/12/12 08:54:48;;;;;;;1.67;1.52;;;;;;;;;;5095611;28;20163;-84
2021/12/12 08:57:31;;;;;;;1.45;1.35;;;;;;;;;;5097011;28;20655;-84
2021/12/12 08:59:57;;;;;;;4.63;2.50;;;;;;;;;;5079752;28;20200;-84
2021/12/12 09:02:23;;;;;;;8.25;4.45;;;;;;;;;;5081103;28;20173;-84
2021/12/12 09:04:54;;;;;;;7.28;4.03;;;;;;;;;;5085385;28;20628;-86
2021/12/12 09:07:24;;;;;;;5.30;3.00;;;;;;;;;;5078787;28;20194;-85
2021/12/12 09:09:59;;;;;;;7.28;5.95;;;;;;;;;;5096883;28;20166;-85
2021/12/12 09:12:26;;;;;;;4.78;3.33;;;;;;;;;;5096953;28;20160;-83
2021/12/12 09:14:59;;;;;;;16.08;10.27;;;;;;;;;;5096645;28;20184;-83
2021/12/12 09:17:27;;;;;;;9.93;8.30;;;;;;;;;;5096130;28;20251;-82
2021/12/12 09:19:56;;;;;;;17.33;14.15;;;;;;;;;;5077572;28;20213;-83
2021/12/12 09:22:25;;;;;;;9.35;8.35;;;;;;;;;;5096513;28;20222;-83
2021/12/12 09:24:57;;;;;;;6.55;5.93;;;;;;;;;;5097133;28;20221;-86
2021/12/12 09:27:26;;;;;;;24.85;16.60;;;;;;;;;;5079994;28;20173;-86
2021/12/12 09:29:55;;;;;;;31.27;21.02;;;;;;;;;;5078980;28;20187;-85
2021/12/12 09:32:27;;;;;;;45.33;30.33;;;;;;;;;;5098546;28;20191;-87
2021/12/12 09:34:59;;;;;;;46.45;28.85;;;;;;;;;;5097767;28;20274;-85
2021/12/12 09:37:58;;;;;;;21.42;13.50;;;;;;;;;;5097669;28;20175;-86
2021/12/12 09:40:30;;;;;;;23.27;16.83;;;;;;;;;;5037243;28;20318;-87
2021/12/12 09:43:04;;;;;;;14.52;9.30;;;;;;;;;;5097691;28;20177;-86
2021/12/12 09:45:49;;;;;;;18.08;11.80;;;;;;;;;;5095558;28;20174;-86
2021/12/12 09:53:53;;;;;;;5.70;3.85;;;;;;;;;;5095698;28;20482;-85
2021/12/12 09:56:19;;;;;;;4.63;4.22;;;;;;;;;;5095530;28;20184;-86
2021/12/12 09:58:45;;;;;;;4.47;4.07;;;;;;;;;;5096385;28;20211;-86
2021/12/12 10:01:16;;;;;;;5.00;4.50;;;;;;;;;;5095810;28;20192;-86
2021/12/12 10:03:50;;;;;;;5.40;4.90;;;;;;;;;;5095876;28;20390;-86
2021/12/12 10:06:23;;;;;;;3.42;3.13;;;;;;;;;;5095171;28;20163;-86
2021/12/12 10:09:06;;;;;;;3.05;2.38;;;;;;;;;;5093376;28;20182;-87
2021/12/12 10:11:42;;;;;;;4.32;3.92;;;;;;;;;;5058775;28;20200;-85
2021/12/12 10:14:16;;;;;;;2.03;1.92;;;;;;;;;;5057668;28;20530;-87
2021/12/12 10:16:47;;;;;;;1.70;1.60;;;;;;;;;;5058077;28;20180;-87
2021/12/12 10:19:19;;;;;;;4.55;2.85;;;;;;;;;;5076066;28;20222;-88
2021/12/12 10:21:45;;;;;;;2.10;2.00;;;;;;;;;;5060869;28;20234;-84
2021/12/12 10:24:40;;;;;;;3.00;2.20;;;;;;;;;;5060236;28;20221;-88
2021/12/12 10:27:15;;;;;;;1.60;1.42;;;;;;;;;;5059892;28;20417;-87
2021/12/12 10:29:54;;;;;;;3.15;2.72;;;;;;;;;;5056477;28;20184;-85
2021/12/12 10:32:22;;;;;;;3.40;3.10;;;;;;;;;;5077791;28;20273;-86
2021/12/12 10:34:51;;;;;;;4.20;3.85;;;;;;;;;;5077704;28;20207;-88
2021/12/12 10:37:22;;;;;;;2.67;2.47;;;;;;;;;;5078315;28;20176;-87
2021/12/12 10:39:50;;;;;;;6.63;4.25;;;;;;;;;;5074821;28;20196;-87
2021/12/12 10:42:19;;;;;;;4.60;3.83;;;;;;;;;;5074240;28;20196;-88
2021/12/12 10:44:47;;;;;;;14.93;11.23;;;;;;;;;;5074405;28;20522;-89
2021/12/12 10:47:16;;;;;;;4.20;3.80;;;;;;;;;;5074306;28;20234;-87
2021/12/12 10:49:52;;;;;;;9.32;4.55;;;;;;;;;;5056035;28;20173;-89
2021/12/12 10:52:23;;;;;;;8.68;6.65;;;;;;;;;;5055994;28;20232;-87
2021/12/12 10:54:54;;;;;;;5.95;4.97;;;;;;;;;;5074041;28;20210;-86
2021/12/12 10:57:22;;;;;;;4.95;3.70;;;;;;;;;;5080210;28;20234;-89
2021/12/12 10:59:48;;;;;;;6.35;4.22;;;;;;;;;;5076231;28;20660;-87
2021/12/12 11:02:17;;;;;;;5.20;2.90;;;;;;;;;;5072543;28;20200;-88
2021/12/12 11:04:52;;;;;;;6.90;2.05;;;;;;;;;;5072949;28;20410;-87
2021/12/12 11:07:22;;;;;;;5.57;1.40;;;;;;;;;;5093808;28;20198;-89
2021/12/12 11:09:50;;;;;;;4.38;3.08;;;;;;;;;;5099163;28;20189;-88
2021/12/12 11:12:24;;;;;;;4.43;4.03;;;;;;;;;;5075085;28;20193;-89
2021/12/12 11:15:00;;;;;;;8.95;8.20;;;;;;;;;;5075824;28;20671;-87
2021/12/12 11:17:28;;;;;;;10.10;7.13;;;;;;;;;;5074554;28;20180;-86
2021/12/12 11:20:05;;;;;;;11.20;8.27;;;;;;;;;;5076352;28;20192;-90
2021/12/12 11:22:31;;;;;;;4.20;3.03;;;;;;;;;;5073136;28;20178;-88
2021/12/12 11:25:09;;;;;;;5.43;4.10;;;;;;;;;;5077493;28;20169;-87
2021/12/12 11:27:59;;;;;;;4.97;4.50;;;;;;;;;;5073814;28;20413;-86
2021/12/12 11:30:28;;;;;;;3.22;1.90;;;;;;;;;;5068612;28;20212;-90
2021/12/12 11:32:56;;;;;;;3.97;2.50;;;;;;;;;;5075105;28;20187;-87
2021/12/12 11:35:24;;;;;;;5.47;4.97;;;;;;;;;;5075777;28;20184;-86
2021/12/12 11:38:03;;;;;;;7.05;5.22;;;;;;;;;;5073994;28;20264;-86
2021/12/12 11:40:33;;;;;;;7.68;6.88;;;;;;;;;;5072769;28;20218;-88
2021/12/12 11:43:24;;;;;;;4.30;3.60;;;;;;;;;;5073812;28;20190;-87
2021/12/12 11:46:13;;;;;;;6.10;3.38;;;;;;;;;;5074040;28;20238;-88
2021/12/12 11:48:54;;;;;;;2.45;2.25;;;;;;;;;;5059769;28;20194;-88
2021/12/12 11:51:20;;;;;;;7.95;4.55;;;;;;;;;;5073111;28;20197;-88
2021/12/12 11:53:56;;;;;;;3.60;2.40;;;;;;;;;;5072093;28;20181;-87
2021/12/12 11:56:30;;;;;;;2.63;2.40;;;;;;;;;;5072225;28;20840;-86
2021/12/12 11:59:03;;;;;;;3.70;2.75;;;;;;;;;;5072067;28;20203;-86
2021/12/12 12:01:52;;;;;;;4.47;3.42;;;;;;;;;;5074549;28;20193;-87
2021/12/12 12:04:30;;;;;;;3.88;3.20;;;;;;;;;;5072972;28;20173;-86
2021/12/12 12:07:11;;;;;;;3.03;2.50;;;;;;;;;;5074973;28;20204;-86
2021/12/12 12:09:37;;;;;;;2.88;2.22;;;;;;;;;;5073954;28;20164;-86
2021/12/12 12:12:03;;;;;;;4.22;2.42;;;;;;;;;;5075052;28;20282;-88
2021/12/12 12:14:45;;;;;;;3.07;2.20;;;;;;;;;;5076562;28;20207;-87
2021/12/12 12:17:32;;;;;;;2.78;2.22;;;;;;;;;;5073267;28;20780;-90
2021/12/12 12:19:58;;;;;;;4.15;2.72;;;;;;;;;;5073671;28;20192;-89
2021/12/12 12:22:47;;;;;;;5.90;5.15;;;;;;;;;;5075910;28;20209;-90
2021/12/12 12:25:16;;;;;;;4.80;4.35;;;;;;;;;;5072214;28;20214;-89
2021/12/12 12:28:05;;;;;;;6.68;2.80;;;;;;;;;;5073738;28;20180;-88
2021/12/12 12:30:31;;;;;;;3.60;2.70;;;;;;;;;;5076552;28;20287;-88
2021/12/12 12:33:20;;;;;;;10.57;9.60;;;;;;;;;;5081115;28;20680;-89
2021/12/12 12:36:18;;;;;;;6.40;5.28;;;;;;;;;;5082320;28;20506;-89
2021/12/12 12:39:06;;;;;;;24.45;17.83;;;;;;;;;;5087063;28;20213;-90
2021/12/12 12:42:10;;;;;;;24.02;19.13;;;;;;;;;;5080618;28;20303;-89
2021/12/12 12:44:55;;;;;;;17.33;11.98;;;;;;;;;;5079935;28;20232;-89
2021/12/12 12:47:40;;;;;;;56.17;37.45;;;;;;;;;;5079660;28;20184;-89
2021/12/12 12:50:25;;;;;;;24.08;14.40;;;;;;;;;;5080995;28;20186;-88
2021/12/12 12:53:10;;;;;;;7.07;3.63;;;;;;;;;;5081140;28;20181;-88
2021/12/12 12:56:21;;;;;;;18.30;9.70;;;;;;;;;;5082255;28;20164;-89
2021/12/12 12:59:06;;;;;;;18.63;11.68;;;;;;;;;;4985248;28;20215;-89
2021/12/12 13:01:47;;;;;;;7.38;3.40;;;;;;;;;;5000461;28;20579;-89
2021/12/12 13:04:13;;;;;;;3.03;2.72;;;;;;;;;;5053513;28;20206;-88
2021/12/12 13:06:54;;;;;;;3.28;2.90;;;;;;;;;;5076504;28;20173;-87
2021/12/12 13:09:43;;;;;;;4.68;3.10;;;;;;;;;;5074381;28;20321;-85
2021/12/12 13:12:09;;;;;;;8.05;5.13;;;;;;;;;;5038462;28;20208;-83
2021/12/12 13:14:53;;;;;;;12.07;9.52;;;;;;;;;;5075805;28;20176;-83
2021/12/12 13:17:41;;;;;;;11.85;6.20;;;;;;;;;;5074410;28;20196;-83
2021/12/12 13:20:11;;;;;;;5.05;4.20;;;;;;;;;;5073956;28;20224;-84
2021/12/12 13:22:58;;;;;;;8.82;4.40;;;;;;;;;;5075740;28;20169;-85
2021/12/12 13:25:27;;;;;;;6.97;3.90;;;;;;;;;;5058360;28;20219;-86
2021/12/12 13:28:05;;;;;;;5.68;4.30;;;;;;;;;;5076190;28;20165;-86
2021/12/12 13:30:48;;;;;;;8.75;7.95;;;;;;;;;;5076055;28;20541;-86
2021/12/12 13:33:20;;;;;;;9.30;8.55;;;;;;;;;;5077199;28;20287;-87
2021/12/12 13:36:06;;;;;;;7.03;5.80;;;;;;;;;;5076033;28;20177;-86
2021/12/12 13:38:58;;;;;;;3.50;3.20;;;;;;;;;;5057367;28;20222;-84
2021/12/12 13:41:33;;;;;;;6.18;5.20;;;;;;;;;;5073810;28;20200;-84
2021/12/12 13:44:24;;;;;;;4.68;3.47;;;;;;;;;;5075469;28;20225;-83
2021/12/12 13:46:59;;;;;;;4.10;3.80;;;;;;;;;;5075323;28;20260;-82
2021/12/12 13:49:29;;;;;;;5.28;2.85;;;;;;;;;;5074729;28;20187;-83
2021/12/12 13:52:00;;;;;;;3.88;3.38;;;;;;;;;;5073815;28;20238;-83
2021/12/12 13:54:32;;;;;;;4.80;3.75;;;;;;;;;;5075445;28;20163;-83
2021/12/12 13:56:58;;;;;;;3.00;2.72;;;;;;;;;;5078602;28;20203;-83
2021/12/12 13:59:37;;;;;;;5.00;3.53;;;;;;;;;;5075586;28;20200;-84
2021/12/12 14:02:03;;;;;;;5.50;3.33;;;;;;;;;;5075281;28;20465;-83
2021/12/12 14:04:41;;;;;;;9.35;7.40;;;;;;;;;;5075242;28;20169;-86
2021/12/12 14:07:08;;;;;;;17.73;12.93;;;;;;;;;;5073936;28;20687;-86
2021/12/12 14:09:34;;;;;;;8.02;4.55;;;;;;;;;;5074517;28;20222;-86
2021/12/12 14:12:01;;;;;;;4.45;3.95;;;;;;;;;;5074765;28;20196;-86
2021/12/12 14:14:30;;;;;;;4.97;4.45;;;;;;;;;;5073808;28;20388;-86
2021/12/12 14:17:04;;;;;;;4.60;4.20;;;;;;;;;;5074657;28;20185;-83
2021/12/12 14:19:35;;;;;;;3.25;2.97;;;;;;;;;;5072710;28;20554;-84
2021/12/12 14:22:02;;;;;;;4.63;4.22;;;;;;;;;;5074700;28;20197;-84
2021/12/12 14:24:30;;;;;;;3.40;3.10;;;;;;;;;;5074660;28;20180;-85
2021/12/12 14:26:57;;;;;;;6.28;5.68;;;;;;;;;;5074577;28;20231;-85
2021/12/12 14:29:24;;;;;;;14.27;10.63;;;;;;;;;;5072973;28;20580;-85
2021/12/12 14:31:53;;;;;;;3.90;3.55;;;;;;;;;;5072861;28;20223;-84
2021/12/12 14:34:40;;;;;;;4.05;3.65;;;;;;;;;;5074409;28;20176;-87
2021/12/12 14:37:08;;;;;;;3.80;3.50;;;;;;;;;;5074207;28;20176;-87
2021/12/12 14:39:34;;;;;;;3.92;3.25;;;;;;;;;;5073720;28;20607;-83
2021/12/12 14:42:10;;;;;;;4.45;4.05;;;;;;;;;;5078602;28;20226;-84
2021/12/12 14:44:41;;;;;;;7.90;4.03;;;;;;;;;;5082775;28;20262;-86
2021/12/12 14:47:13;;;;;;;5.15;3.50;;;;;;;;;;5067396;28;20172;-83
2021/12/12 14:49:41;;;;;;;2.65;2.38;;;;;;;;;;5077077;28;20177;-84
2021/12/12 14:52:22;;;;;;;5.22;2.97;;;;;;;;;;5080148;28;20226;-83
2021/12/12 14:54:50;;;;;;;3.60;3.17;;;;;;;;;;5081725;28;20179;-83
2021/12/12 14:57:19;;;;;;;7.35;3.30;;;;;;;;;;5094240;28;20618;-83
2021/12/12 14:59:47;;;;;;;3.65;3.35;;;;;;;;;;5085094;28;20219;-84
2021/12/12 15:02:13;;;;;;;3.75;3.45;;;;;;;;;;5082174;28;20196;-82
2021/12/12 15:04:41;;;;;;;3.88;3.28;;;;;;;;;;5075203;28;20204;-83
2021/12/12 15:07:16;;;;;;;4.72;2.80;;;;;;;;;;5074214;28;20534;-83
2021/12/12 15:09:44;;;;;;;6.30;3.60;;;;;;;;;;5071778;28;20609;-82
2021/12/12 15:12:21;;;;;;;3.50;3.20;;;;;;;;;;5073394;28;20207;-83
2021/12/12 15:14:50;;;;;;;8.63;3.65;;;;;;;;;;5073553;28;20522;-83
2021/12/12 15:17:16;;;;;;;7.38;4.25;;;;;;;;;;5073634;28;20634;-84
2021/12/12 15:19:48;;;;;;;3.25;2.95;;;;;;;;;;5078542;28;20204;-82
2021/12/12 15:22:15;;;;;;;6.38;3.85;;;;;;;;;;5078650;28;20200;-83
2021/12/12 15:24:52;;;;;;;7.60;3.55;;;;;;;;;;5086974;28;20578;-83